createdAt,value
2019-01-11T00:00:59.561Z,2.20
2019-01-11T00:03:30.904Z,2.63
2019-01-11T00:05:59.953Z,2.20
2019-01-11T00:08:30.012Z,2.30
2019-01-11T00:11:00.602Z,2.63
2019-01-11T00:13:29.760Z,2.10
2019-01-11T00:15:58.778Z,2.47
2019-01-11T00:18:28.209Z,2.77
2019-01-11T00:20:57.585Z,2.50
2019-01-11T00:23:26.693Z,2.53
2019-01-11T00:25:56.084Z,2.70
2019-01-11T00:28:25.388Z,2.40
2019-01-11T00:30:54.183Z,2.30
2019-01-11T00:33:22.828Z,2.40
2019-01-11T00:35:53.079Z,2.60
2019-01-11T00:38:21.837Z,2.60
2019-01-11T00:40:50.939Z,2.67
2019-01-11T00:43:20.308Z,2.53
2019-01-11T00:45:49.960Z,2.17
2019-01-11T00:48:19.375Z,2.10
2019-01-11T00:50:48.666Z,2.47
2019-01-11T00:53:19.125Z,2.87
2019-01-11T00:55:48.137Z,2.57
2019-01-11T00:58:17.727Z,2.87
2019-01-11T01:00:47.120Z,2.60
2019-01-11T01:03:16.604Z,3.20
2019-01-11T01:05:46.000Z,2.40
2019-01-11T01:08:15.211Z,2.50
2019-01-11T01:10:44.775Z,2.90
2019-01-11T01:13:14.003Z,3.08
2019-01-11T01:15:43.214Z,2.53
2019-01-11T01:18:12.831Z,2.77
2019-01-11T01:20:41.479Z,3.53
2019-01-11T01:23:10.254Z,2.53
2019-01-11T01:25:39.450Z,2.03
2019-01-11T01:28:08.949Z,2.10
2019-01-11T01:30:38.209Z,2.40
2019-01-11T01:33:07.385Z,2.72
2019-01-11T01:35:36.676Z,1.90
2019-01-11T01:38:06.486Z,2.00
2019-01-11T01:40:35.540Z,2.00
2019-01-11T01:43:04.846Z,2.67
2019-01-11T01:45:34.116Z,2.60
2019-01-11T01:48:03.364Z,2.40
2019-01-11T01:50:32.643Z,2.10
2019-01-11T01:53:02.092Z,2.77
2019-01-11T01:55:31.086Z,2.40
2019-01-11T01:58:00.538Z,2.40
2019-01-11T02:00:30.157Z,2.70
2019-01-11T02:02:59.306Z,3.15
2019-01-11T02:05:28.606Z,2.72
2019-01-11T02:07:57.802Z,3.47
2019-01-11T02:10:27.099Z,2.72
2019-01-11T02:12:57.099Z,3.40
2019-01-11T02:15:26.366Z,2.90
2019-01-11T02:17:55.670Z,2.98
2019-01-11T02:20:26.254Z,2.62
2019-01-11T02:22:55.497Z,3.00
2019-01-11T02:25:25.277Z,3.12
2019-01-11T02:27:54.773Z,3.33
2019-01-11T02:30:24.079Z,2.83
2019-01-11T02:32:53.737Z,3.15
2019-01-11T02:35:23.902Z,2.58
2019-01-11T02:37:53.808Z,2.95
2019-01-11T02:40:23.026Z,3.05
2019-01-11T02:42:52.633Z,3.05
2019-01-11T02:45:21.505Z,3.00
2019-01-11T02:47:50.323Z,3.52
2019-01-11T02:50:19.074Z,2.95
2019-01-11T02:52:48.468Z,2.77
2019-01-11T02:55:18.168Z,3.62
2019-01-11T02:57:47.290Z,3.47
2019-01-11T03:00:18.202Z,3.25
2019-01-11T03:02:47.439Z,3.50
2019-01-11T03:05:16.837Z,3.15
2019-01-11T03:07:47.046Z,2.80
2019-01-11T03:10:20.903Z,2.35
2019-01-11T03:12:50.208Z,2.75
2019-01-11T03:15:19.555Z,3.17
2019-01-11T03:17:48.803Z,2.95
2019-01-11T03:20:18.756Z,4.08
2019-01-11T03:22:48.443Z,4.45
2019-01-11T03:25:17.990Z,3.87
2019-01-11T03:27:47.370Z,3.52
2019-01-11T03:30:18.037Z,3.83
2019-01-11T03:32:47.602Z,3.80
2019-01-11T03:35:17.748Z,3.62
2019-01-11T03:37:47.855Z,4.12
2019-01-11T03:40:19.072Z,4.70
2019-01-11T03:42:48.349Z,4.75
2019-01-11T03:45:19.441Z,4.83
2019-01-11T03:47:49.604Z,4.92
2019-01-11T03:50:20.552Z,6.58
2019-01-11T03:52:49.990Z,6.40
2019-01-11T03:55:20.489Z,7.05
2019-01-11T03:57:49.904Z,6.90
2019-01-11T04:00:22.672Z,6.15
2019-01-11T04:02:51.809Z,3.95
2019-01-11T04:05:21.030Z,3.65
2019-01-11T04:07:50.415Z,2.92
2019-01-11T04:10:21.841Z,2.52
2019-01-11T04:12:52.286Z,3.10
2019-01-11T04:15:21.465Z,2.47
2019-01-11T04:18:10.353Z,2.40
2019-01-11T04:20:39.738Z,2.15
2019-01-11T04:23:09.031Z,2.60
2019-01-11T04:25:39.031Z,2.80
2019-01-11T04:28:08.446Z,2.80
2019-01-11T04:30:37.688Z,2.80
2019-01-11T04:33:07.103Z,3.42
2019-01-11T04:35:36.337Z,3.12
2019-01-11T04:38:05.849Z,2.83
2019-01-11T04:40:35.410Z,3.40
2019-01-11T04:43:05.250Z,4.00
2019-01-11T04:45:34.561Z,4.35
2019-01-11T04:48:03.866Z,4.30
2019-01-11T04:50:34.021Z,4.37
2019-01-11T04:53:03.281Z,3.83
2019-01-11T04:55:32.100Z,4.58
2019-01-11T04:58:01.000Z,5.60
2019-01-11T05:00:29.778Z,7.95
2019-01-11T05:02:59.038Z,9.08
2019-01-11T05:05:28.138Z,8.08
2019-01-11T05:07:57.509Z,7.67
2019-01-11T05:10:26.862Z,5.30
2019-01-11T05:12:57.353Z,4.70
2019-01-11T05:15:26.562Z,3.83
2019-01-11T05:17:55.863Z,4.55
2019-01-11T05:20:25.124Z,4.60
2019-01-11T05:22:55.223Z,7.37
2019-01-11T05:25:24.583Z,8.55
2019-01-11T05:27:53.824Z,9.08
2019-01-11T05:30:23.376Z,7.80
2019-01-11T05:32:52.780Z,5.67
2019-01-11T05:35:22.000Z,4.90
2019-01-11T05:37:51.104Z,4.10
2019-01-11T05:40:20.982Z,3.95
2019-01-11T05:42:50.564Z,3.42
2019-01-11T05:45:19.388Z,3.10
2019-01-11T05:47:48.664Z,3.08
2019-01-11T05:50:23.921Z,2.70
2019-01-11T05:52:50.224Z,2.47
2019-01-11T05:55:21.086Z,2.67
2019-01-11T05:57:57.887Z,2.90
2019-01-11T06:00:27.272Z,3.58
2019-01-11T06:02:56.175Z,3.30
2019-01-11T06:05:25.627Z,3.50
2019-01-11T06:07:55.059Z,3.20
2019-01-11T06:10:24.694Z,3.27
2019-01-11T06:12:54.111Z,3.20
2019-01-11T06:15:23.320Z,2.45
2019-01-11T06:17:53.049Z,3.00
2019-01-11T06:20:22.403Z,3.77
2019-01-11T06:22:51.075Z,3.33
2019-01-11T06:25:19.730Z,3.42
2019-01-11T06:27:48.388Z,3.37
2019-01-11T06:30:18.076Z,3.37
2019-01-11T06:32:47.661Z,3.77
2019-01-11T06:35:18.096Z,3.20
2019-01-11T06:37:47.444Z,3.70
2019-01-11T06:40:16.746Z,3.27
2019-01-11T06:42:46.003Z,3.17
2019-01-11T06:45:15.160Z,3.25
2019-01-11T06:47:44.400Z,3.35
2019-01-11T06:50:15.288Z,2.83
2019-01-11T06:52:45.327Z,3.00
2019-01-11T06:55:14.825Z,2.67
2019-01-11T06:57:44.300Z,2.95
2019-01-11T07:00:17.914Z,3.30
2019-01-11T07:02:47.247Z,3.33
2019-01-11T07:05:16.854Z,3.37
2019-01-11T07:07:46.419Z,3.17
2019-01-11T07:10:20.751Z,2.77
2019-01-11T07:12:50.147Z,3.37
2019-01-11T07:15:19.723Z,3.00
2019-01-11T07:17:49.140Z,3.20
2019-01-11T07:20:18.709Z,3.33
2019-01-11T07:22:48.132Z,3.72
2019-01-11T07:25:18.455Z,2.72
2019-01-11T07:27:49.151Z,3.02
2019-01-11T07:30:18.475Z,2.70
2019-01-11T07:32:47.738Z,3.98
2019-01-11T07:35:17.312Z,4.25
2019-01-11T07:37:46.494Z,4.58
2019-01-11T07:40:16.153Z,6.50
2019-01-11T07:42:45.805Z,5.80
2019-01-11T07:45:15.379Z,7.37
2019-01-11T07:47:45.720Z,8.18
2019-01-11T07:50:15.143Z,9.43
2019-01-11T07:52:43.775Z,10.20
2019-01-11T07:55:12.541Z,10.00
2019-01-11T07:57:41.307Z,9.75
2019-01-11T08:00:12.240Z,10.82
2019-01-11T08:02:41.636Z,10.65
2019-01-11T08:05:11.461Z,8.88
2019-01-11T08:07:40.907Z,8.90
2019-01-11T08:10:11.592Z,7.65
2019-01-11T08:12:40.880Z,6.80
2019-01-11T08:15:13.072Z,7.97
2019-01-11T08:17:42.237Z,8.30
2019-01-11T08:20:11.502Z,9.40
2019-01-11T08:22:42.501Z,10.23
2019-01-11T08:25:13.295Z,9.73
2019-01-11T08:27:42.620Z,8.93
2019-01-11T08:30:16.780Z,8.45
2019-01-11T08:32:45.972Z,6.10
2019-01-11T08:35:15.440Z,5.85
2019-01-11T08:37:44.203Z,5.55
2019-01-11T08:40:13.165Z,5.33
2019-01-11T08:42:41.813Z,5.20
2019-01-11T08:45:14.020Z,5.15
2019-01-11T08:47:43.921Z,5.87
2019-01-11T08:50:17.318Z,6.03
2019-01-11T08:52:47.655Z,5.45
2019-01-11T08:55:16.855Z,6.65
2019-01-11T08:57:45.981Z,9.40
2019-01-11T09:00:15.852Z,9.60
2019-01-11T09:02:45.162Z,11.15
2019-01-11T09:05:14.682Z,9.40
2019-01-11T09:07:45.759Z,10.00
2019-01-11T09:10:22.370Z,10.08
2019-01-11T09:12:46.986Z,10.63
2019-01-11T09:15:16.045Z,11.70
2019-01-11T09:18:04.608Z,10.68
2019-01-11T09:20:33.258Z,10.93
2019-01-11T09:23:02.426Z,11.10
2019-01-11T09:25:31.745Z,10.43
2019-01-11T09:28:00.660Z,11.35
2019-01-11T09:30:29.977Z,10.90
2019-01-11T09:33:00.339Z,9.70
2019-01-11T09:35:29.505Z,10.70
2019-01-11T09:37:58.717Z,10.35
2019-01-11T09:40:28.168Z,10.38
2019-01-11T09:42:57.404Z,10.18
2019-01-11T09:45:26.536Z,9.98
2019-01-11T09:47:55.916Z,9.68
2019-01-11T09:50:24.983Z,10.08
2019-01-11T09:52:54.203Z,10.75
2019-01-11T09:55:24.630Z,9.78
2019-01-11T09:57:53.926Z,11.08
2019-01-11T10:00:26.792Z,10.03
2019-01-11T10:03:00.685Z,9.63
2019-01-11T10:05:29.240Z,9.33
2019-01-11T10:07:57.975Z,9.60
2019-01-11T10:10:27.338Z,8.80
2019-01-11T10:12:56.094Z,9.00
2019-01-11T10:15:25.176Z,9.28
2019-01-11T10:17:54.284Z,8.75
2019-01-11T10:20:23.510Z,8.45
2019-01-11T10:22:52.861Z,8.38
2019-01-11T10:25:22.563Z,7.83
2019-01-11T10:27:51.564Z,8.30
2019-01-11T10:30:22.643Z,8.15
2019-01-11T10:32:51.668Z,8.30
2019-01-11T10:35:21.132Z,8.13
2019-01-11T10:37:50.360Z,7.90
2019-01-11T10:40:20.301Z,8.50
2019-01-11T10:42:50.201Z,7.40
2019-01-11T10:45:21.585Z,7.78
2019-01-11T10:47:51.770Z,7.37
2019-01-11T10:50:21.566Z,7.92
2019-01-11T10:52:51.945Z,7.05
2019-01-11T10:55:20.922Z,7.60
2019-01-11T10:57:49.567Z,6.97
2019-01-11T11:00:21.569Z,7.85
2019-01-11T11:02:51.195Z,7.75
2019-01-11T11:05:21.080Z,7.15
2019-01-11T11:07:50.610Z,7.42
2019-01-11T11:10:20.127Z,8.05
2019-01-11T11:12:49.402Z,7.78
2019-01-11T11:15:18.963Z,7.37
2019-01-11T11:17:48.629Z,7.70
2019-01-11T11:20:19.129Z,7.47
2019-01-11T11:22:48.434Z,6.35
2019-01-11T11:25:19.225Z,7.30
2019-01-11T11:27:48.256Z,7.28
2019-01-11T11:30:18.339Z,8.05
2019-01-11T11:32:57.091Z,7.20
2019-01-11T11:35:26.601Z,8.25
2019-01-11T11:37:55.542Z,7.15
2019-01-11T11:40:24.822Z,7.58
2019-01-11T11:42:54.192Z,6.95
2019-01-11T11:45:23.397Z,8.13
2019-01-11T11:47:52.723Z,7.37
2019-01-11T11:50:23.323Z,8.18
2019-01-11T11:52:52.523Z,7.35
2019-01-11T11:55:21.918Z,7.70
2019-01-11T11:57:51.194Z,8.25
2019-01-11T12:00:22.307Z,8.90
2019-01-11T12:02:51.618Z,9.15
2019-01-11T12:05:21.284Z,7.70
2019-01-11T12:07:50.429Z,7.75
2019-01-11T12:10:19.717Z,7.80
2019-01-11T12:12:49.192Z,8.80
2019-01-11T12:15:18.313Z,7.10
2019-01-11T12:17:47.224Z,6.30
2019-01-11T12:20:18.984Z,6.95
2019-01-11T12:22:48.067Z,8.60
2019-01-11T12:25:16.704Z,8.23
2019-01-11T12:27:45.777Z,8.03
2019-01-11T12:30:16.454Z,7.80
2019-01-11T12:32:45.644Z,6.72
2019-01-11T12:35:14.729Z,7.12
2019-01-11T12:37:44.920Z,6.75
2019-01-11T12:40:15.199Z,7.80
2019-01-11T12:42:44.256Z,7.17
2019-01-11T12:45:15.533Z,6.22
2019-01-11T12:47:44.687Z,7.62
2019-01-11T12:50:17.440Z,6.10
2019-01-11T12:52:46.551Z,6.95
2019-01-11T12:55:16.156Z,6.35
2019-01-11T12:57:45.445Z,7.60
2019-01-11T13:00:16.202Z,7.17
2019-01-11T13:02:45.514Z,6.40
2019-01-11T13:05:16.459Z,6.15
2019-01-11T13:07:46.746Z,7.25
2019-01-11T13:10:17.578Z,6.37
2019-01-11T13:12:46.981Z,6.45
2019-01-11T13:15:18.020Z,5.80
2019-01-11T13:17:48.146Z,5.67
2019-01-11T13:20:18.987Z,6.40
2019-01-11T13:22:48.501Z,5.70
2019-01-11T13:25:17.615Z,6.83
2019-01-11T13:27:46.960Z,6.10
2019-01-11T13:30:17.155Z,6.15
2019-01-11T13:32:46.504Z,6.45
2019-01-11T13:35:15.791Z,5.78
2019-01-11T13:37:45.214Z,6.10
2019-01-11T13:40:19.844Z,5.53
2019-01-11T13:42:49.111Z,5.53
2019-01-11T13:45:18.138Z,5.70
2019-01-11T13:47:47.387Z,5.80
2019-01-11T13:50:31.845Z,5.53
2019-01-11T13:53:00.502Z,5.97
2019-01-11T13:55:29.533Z,5.67
2019-01-11T13:57:58.877Z,5.22
2019-01-11T14:00:28.157Z,5.47
2019-01-11T14:02:57.523Z,5.30
2019-01-11T14:05:27.778Z,6.08
2019-01-11T14:07:56.876Z,6.55
2019-01-11T14:10:26.188Z,5.45
2019-01-11T14:12:55.348Z,6.28
2019-01-11T14:15:24.611Z,6.12
2019-01-11T14:17:54.483Z,5.67
2019-01-11T14:20:23.767Z,5.20
2019-01-11T14:22:52.969Z,6.05
2019-01-11T14:25:22.912Z,6.12
2019-01-11T14:27:52.079Z,5.90
2019-01-11T14:30:21.048Z,5.05
2019-01-11T14:32:49.768Z,5.83
2019-01-11T14:35:18.404Z,5.72
2019-01-11T14:37:47.138Z,5.28
2019-01-11T14:40:17.403Z,5.10
2019-01-11T14:42:46.894Z,6.20
2019-01-11T14:45:17.314Z,3.67
2019-01-11T14:47:46.472Z,4.35
2019-01-11T14:50:17.185Z,4.20
2019-01-11T14:52:46.407Z,4.58
2019-01-11T14:55:15.607Z,4.10
2019-01-11T14:57:44.844Z,3.85
2019-01-11T15:00:17.381Z,5.17
2019-01-11T15:02:46.654Z,4.60
2019-01-11T15:05:16.832Z,3.52
2019-01-11T15:07:45.952Z,4.50
2019-01-11T15:10:17.292Z,3.50
2019-01-11T15:12:47.223Z,5.08
2019-01-11T15:15:16.313Z,4.00
2019-01-11T15:17:45.569Z,4.00
2019-01-11T15:20:16.394Z,3.52
2019-01-11T15:22:46.232Z,3.62
2019-01-11T15:25:15.423Z,3.22
2019-01-11T15:27:44.759Z,3.85
2019-01-11T15:30:16.153Z,4.05
2019-01-11T15:32:45.364Z,3.10
2019-01-11T15:35:15.032Z,4.05
2019-01-11T15:37:44.290Z,3.40
2019-01-11T15:40:19.344Z,3.58
2019-01-11T15:42:48.630Z,3.72
2019-01-11T15:45:18.108Z,3.33
2019-01-11T15:47:47.840Z,3.50
2019-01-11T15:50:42.742Z,4.20
2019-01-11T15:53:11.939Z,4.08
2019-01-11T15:55:41.060Z,3.22
2019-01-11T15:58:10.586Z,3.58
2019-01-11T16:00:44.542Z,3.02
2019-01-11T16:03:13.698Z,3.17
2019-01-11T16:05:43.636Z,3.87
2019-01-11T16:08:12.278Z,3.08
2019-01-11T16:10:56.472Z,3.10
2019-01-11T16:13:25.947Z,3.22
2019-01-11T16:15:58.029Z,2.87
2019-01-11T16:18:27.333Z,3.45
2019-01-11T16:20:56.716Z,3.20
2019-01-11T16:23:25.777Z,3.00
2019-01-11T16:25:54.883Z,3.17
2019-01-11T16:28:23.994Z,2.55
2019-01-11T16:30:53.052Z,3.42
2019-01-11T16:33:22.271Z,2.90
2019-01-11T16:35:51.879Z,2.92
2019-01-11T16:38:21.157Z,2.90
2019-01-11T16:40:50.158Z,2.72
2019-01-11T16:43:19.353Z,2.95
2019-01-11T16:45:47.986Z,2.70
2019-01-11T16:48:17.021Z,2.80
2019-01-11T16:50:45.640Z,2.62
2019-01-11T16:53:14.834Z,2.70
2019-01-11T16:55:44.394Z,2.72
2019-01-11T16:58:13.516Z,2.62
2019-01-11T17:00:42.600Z,2.60
2019-01-11T17:03:11.844Z,2.35
2019-01-11T17:05:41.142Z,2.65
2019-01-11T17:08:10.498Z,3.02
2019-01-11T17:10:39.702Z,3.45
2019-01-11T17:13:08.900Z,2.42
2019-01-11T17:15:38.315Z,2.45
2019-01-11T17:18:07.689Z,2.75
2019-01-11T17:20:36.587Z,2.70
2019-01-11T17:23:05.780Z,2.52
2019-01-11T17:25:35.219Z,2.45
2019-01-11T17:28:04.305Z,3.25
2019-01-11T17:30:33.701Z,2.47
2019-01-11T17:33:03.906Z,3.20
2019-01-11T17:35:33.102Z,2.70
2019-01-11T17:38:02.292Z,2.70
2019-01-11T17:40:31.631Z,2.90
2019-01-11T17:43:01.019Z,3.17
2019-01-11T17:45:30.079Z,2.70
2019-01-11T17:47:59.182Z,2.80
2019-01-11T17:50:28.410Z,2.87
2019-01-11T17:52:59.915Z,2.72
2019-01-11T17:55:28.875Z,2.70
2019-01-11T17:57:57.995Z,2.67
2019-01-11T18:00:27.337Z,3.00
2019-01-11T18:02:56.774Z,3.05
2019-01-11T18:05:27.004Z,2.98
2019-01-11T18:07:56.172Z,3.02
2019-01-11T18:10:25.627Z,2.75
2019-01-11T18:12:54.248Z,2.50
2019-01-11T18:15:22.923Z,3.10
2019-01-11T18:17:51.695Z,2.00
2019-01-11T18:20:23.525Z,2.70
2019-01-11T18:22:52.799Z,2.77
2019-01-11T18:25:23.013Z,2.40
2019-01-11T18:27:52.199Z,2.80
2019-01-11T18:30:21.494Z,3.35
2019-01-11T18:32:51.604Z,2.75
2019-01-11T18:35:20.898Z,3.10
2019-01-11T18:37:50.093Z,2.87
2019-01-11T18:40:22.149Z,2.80
2019-01-11T18:42:51.570Z,2.17
2019-01-11T18:45:20.841Z,2.45
2019-01-11T18:47:51.222Z,3.20
2019-01-11T18:50:23.840Z,2.70
2019-01-11T18:52:53.078Z,2.37
2019-01-11T18:55:21.636Z,2.50
2019-01-11T18:57:50.361Z,2.10
2019-01-11T19:00:21.025Z,2.92
2019-01-11T19:02:49.678Z,2.40
2019-01-11T19:05:20.011Z,3.65
2019-01-11T19:07:49.080Z,2.50
2019-01-11T19:10:19.666Z,2.62
2019-01-11T19:12:49.123Z,2.40
2019-01-11T19:15:20.051Z,2.20
2019-01-11T19:17:49.244Z,2.20
2019-01-11T19:20:20.218Z,2.70
2019-01-11T19:22:49.708Z,2.70
2019-01-11T19:25:19.182Z,3.40
2019-01-11T19:27:48.476Z,2.40
2019-01-11T19:30:22.845Z,2.35
2019-01-11T19:32:51.985Z,2.00
2019-01-11T19:35:22.239Z,2.35
2019-01-11T19:37:51.517Z,2.30
2019-01-11T19:40:20.246Z,2.70
2019-01-11T19:42:50.784Z,2.33
2019-01-11T19:45:20.041Z,2.40
2019-01-11T19:47:49.304Z,2.20
2019-01-11T19:50:21.172Z,2.42
2019-01-11T19:52:50.568Z,2.98
2019-01-11T19:55:20.179Z,2.50
2019-01-11T19:57:49.350Z,2.90
2019-01-11T20:00:23.168Z,2.95
2019-01-11T20:02:52.441Z,3.47
2019-01-11T20:05:21.575Z,2.85
2019-01-11T20:07:50.797Z,2.65
2019-01-11T20:10:22.777Z,2.95
2019-01-11T20:12:51.908Z,2.75
2019-01-11T20:15:21.526Z,3.58
2019-01-11T20:17:50.731Z,2.40
2019-01-11T20:20:20.210Z,2.95
2019-01-11T20:22:49.145Z,3.22
2019-01-11T20:25:22.692Z,1.92
2019-01-11T20:27:52.361Z,3.30
2019-01-11T20:30:23.095Z,2.80
2019-01-11T20:32:52.207Z,2.50
2019-01-11T20:35:21.488Z,2.20
2019-01-11T20:37:50.654Z,2.45
2019-01-11T20:40:20.744Z,2.70
2019-01-11T20:42:49.969Z,2.33
2019-01-11T20:45:19.670Z,2.30
2019-01-11T20:47:49.181Z,2.40
2019-01-11T20:50:20.773Z,3.10
2019-01-11T20:52:50.539Z,2.75
2019-01-11T20:55:20.004Z,2.60
2019-01-11T20:57:49.282Z,2.80
2019-01-11T21:00:27.330Z,2.27
2019-01-11T21:02:56.489Z,2.60
2019-01-11T21:05:26.436Z,2.40
2019-01-11T21:07:55.266Z,2.50
2019-01-11T21:10:24.118Z,2.80
2019-01-11T21:12:52.843Z,2.37
2019-01-11T21:15:23.092Z,2.25
2019-01-11T21:17:53.376Z,2.25
2019-01-11T21:20:23.617Z,2.52
2019-01-11T21:22:52.917Z,2.27
2019-01-11T21:25:22.643Z,2.95
2019-01-11T21:27:52.034Z,2.98
2019-01-11T21:30:25.874Z,2.55
2019-01-11T21:32:55.261Z,2.05
2019-01-11T21:35:24.480Z,2.35
2019-01-11T21:37:53.623Z,2.58
2019-01-11T21:40:22.924Z,2.55
2019-01-11T21:42:52.311Z,2.30
2019-01-11T21:45:21.728Z,2.60
2019-01-11T21:47:50.818Z,2.75
2019-01-11T21:50:22.121Z,2.87
2019-01-11T21:52:51.787Z,2.65
2019-01-11T21:55:21.149Z,3.12
2019-01-11T21:57:49.868Z,2.70
2019-01-11T22:00:27.219Z,2.75
2019-01-11T22:02:56.229Z,2.90
2019-01-11T22:05:25.323Z,2.83
2019-01-11T22:07:54.558Z,2.60
2019-01-11T22:10:23.772Z,3.10
2019-01-11T22:12:53.356Z,2.98
2019-01-11T22:15:22.420Z,2.95
2019-01-11T22:17:51.418Z,2.55
2019-01-11T22:20:21.977Z,3.75
2019-01-11T22:22:51.379Z,3.20
2019-01-11T22:25:20.401Z,3.30
2019-01-11T22:27:49.609Z,3.50
2019-01-11T22:30:30.299Z,3.17
2019-01-11T22:32:55.738Z,4.80
2019-01-11T22:35:24.488Z,5.65
2019-01-11T22:37:53.266Z,3.30
2019-01-11T22:40:23.516Z,4.42
2019-01-11T22:42:57.549Z,3.27
2019-01-11T22:45:26.813Z,3.45
2019-01-11T22:47:56.520Z,3.27
2019-01-11T22:50:25.662Z,3.20
2019-01-11T22:52:54.930Z,3.75
2019-01-11T22:55:24.455Z,3.95
2019-01-11T22:57:53.639Z,3.80
2019-01-11T23:00:44.927Z,3.22
2019-01-11T23:03:23.025Z,3.17
2019-01-11T23:05:54.953Z,4.40
2019-01-11T23:08:25.272Z,3.87
2019-01-11T23:11:13.544Z,3.45
2019-01-11T23:13:43.213Z,3.45
2019-01-11T23:16:15.508Z,3.55
2019-01-11T23:18:44.254Z,3.80
2019-01-11T23:21:13.116Z,4.12
2019-01-11T23:23:41.791Z,3.65
2019-01-11T23:26:11.120Z,3.85
2019-01-11T23:28:40.494Z,3.70
2019-01-11T23:31:09.770Z,3.60
2019-01-11T23:33:40.590Z,4.05
2019-01-11T23:36:10.186Z,2.92
2019-01-11T23:38:39.669Z,3.10
2019-01-11T23:41:09.144Z,4.10
2019-01-11T23:43:39.196Z,3.65
2019-01-11T23:46:08.301Z,3.85
2019-01-11T23:48:37.356Z,3.85
2019-01-11T23:51:06.444Z,4.15
2019-01-11T23:53:36.596Z,4.05
2019-01-11T23:56:05.857Z,3.40
2019-01-11T23:58:35.371Z,4.05
